createdAt,value
2018-09-12T02:07:22.188Z,0.00
2018-09-12T02:08:22.159Z,0.00
2018-09-12T02:10:15.136Z,0.00
2018-09-12T02:11:15.122Z,0.00
2018-09-12T02:13:08.068Z,0.00
2018-09-12T02:14:08.036Z,0.00
2018-09-12T02:16:00.957Z,0.00
2018-09-12T02:17:00.926Z,0.00
2018-09-12T02:18:53.909Z,0.00
2018-09-12T02:19:53.879Z,0.00
2018-09-12T02:21:46.779Z,0.00
2018-09-12T02:22:46.767Z,0.00
2018-09-12T02:24:39.705Z,0.00
2018-09-12T02:25:39.685Z,0.00
2018-09-12T02:27:32.664Z,0.00
2018-09-12T02:28:32.639Z,0.00
2018-09-12T02:30:25.619Z,0.00
2018-09-12T02:31:25.599Z,0.00
2018-09-12T02:33:18.572Z,0.00
2018-09-12T02:34:18.553Z,0.00
2018-09-12T02:36:11.522Z,0.00
2018-09-12T02:37:11.508Z,0.00
2018-09-12T02:39:04.491Z,0.00
2018-09-12T02:40:04.466Z,0.00
2018-09-12T02:41:57.437Z,0.00
2018-09-12T02:42:57.419Z,0.00
2018-09-12T02:44:50.399Z,0.00
2018-09-12T02:45:50.371Z,0.00
2018-09-12T02:47:43.374Z,0.00
2018-09-12T02:48:43.341Z,0.00
2018-09-12T02:50:36.303Z,0.00
2018-09-12T02:51:36.290Z,0.00
2018-09-12T02:53:29.244Z,0.00
2018-09-12T02:54:29.227Z,0.00
2018-09-12T02:56:22.150Z,0.00
2018-09-12T02:57:22.141Z,0.00
2018-09-12T02:59:15.069Z,0.00
2018-09-12T03:00:15.044Z,0.00
2018-09-12T03:02:08.008Z,0.00
2018-09-12T03:03:07.996Z,0.00
2018-09-12T03:05:00.972Z,0.00
2018-09-12T03:06:00.959Z,0.00
2018-09-12T03:07:53.931Z,0.00
2018-09-12T03:08:53.915Z,0.00
2018-09-12T03:10:46.855Z,0.00
2018-09-12T03:11:46.828Z,0.00
2018-09-12T03:13:39.780Z,0.00
2018-09-12T03:14:39.740Z,0.00
2018-09-12T03:16:32.690Z,0.00
2018-09-12T03:17:32.669Z,0.00
2018-09-12T03:19:25.646Z,0.00
2018-09-12T03:20:25.630Z,0.00
2018-09-12T03:22:18.584Z,0.00
2018-09-12T03:23:18.572Z,0.00
2018-09-12T03:25:11.519Z,0.00
2018-09-12T03:26:11.500Z,0.00
2018-09-12T03:28:04.391Z,0.00
2018-09-12T03:29:04.381Z,0.00
2018-09-12T03:30:57.363Z,0.00
2018-09-12T03:31:57.340Z,0.00
2018-09-12T03:33:50.323Z,0.00
2018-09-12T03:34:50.288Z,0.00
2018-09-12T03:36:43.258Z,0.00
2018-09-12T03:37:43.248Z,0.00
2018-09-12T03:39:36.223Z,0.00
2018-09-12T03:40:36.200Z,0.00
2018-09-12T03:42:29.163Z,0.00
2018-09-12T03:43:29.153Z,0.00
2018-09-12T03:45:22.130Z,0.00
2018-09-12T03:46:22.108Z,0.00
2018-09-12T03:48:15.075Z,0.00
2018-09-12T03:49:15.063Z,0.00
2018-09-12T03:51:08.037Z,0.00
2018-09-12T03:52:08.020Z,0.00
2018-09-12T03:54:00.997Z,0.00
2018-09-12T03:55:00.975Z,0.00
2018-09-12T03:56:53.944Z,0.00
2018-09-12T03:57:53.923Z,0.00
2018-09-12T03:59:46.880Z,0.00
2018-09-12T04:00:46.854Z,0.00
2018-09-12T04:02:39.884Z,0.00
2018-09-12T04:03:39.833Z,0.00
2018-09-12T04:05:32.807Z,0.00
2018-09-12T04:06:32.787Z,0.00
2018-09-12T04:08:25.723Z,0.00
2018-09-12T04:09:25.705Z,0.00
2018-09-12T04:11:18.636Z,0.00
2018-09-12T04:12:18.616Z,0.00
2018-09-12T04:14:11.556Z,0.00
2018-09-12T04:15:11.537Z,0.00
2018-09-12T04:17:04.526Z,0.00
2018-09-12T04:18:04.498Z,0.00
2018-09-12T04:19:57.438Z,0.00
2018-09-12T04:20:57.439Z,0.00
2018-09-12T04:22:50.432Z,0.00
2018-09-12T04:23:50.412Z,0.00
2018-09-12T04:25:43.389Z,0.00
2018-09-12T04:26:43.368Z,0.00
2018-09-12T04:28:36.324Z,0.00
2018-09-12T04:29:36.312Z,0.00
2018-09-12T04:31:29.217Z,0.00
2018-09-12T04:32:29.196Z,0.00
2018-09-12T04:34:22.129Z,0.00
2018-09-12T04:35:22.173Z,0.00
2018-09-12T04:37:15.058Z,0.00
2018-09-12T04:38:15.031Z,0.00
2018-09-12T04:40:07.934Z,0.00
2018-09-12T04:41:07.958Z,0.00
2018-09-12T04:43:00.904Z,0.00
2018-09-12T04:44:00.886Z,0.00
2018-09-12T04:45:53.859Z,5.63
2018-09-12T04:46:53.838Z,5.63
2018-09-12T04:48:46.805Z,5.63
2018-09-12T04:49:46.792Z,11.25
2018-09-12T04:51:39.764Z,11.25
2018-09-12T04:52:39.723Z,11.25
2018-09-12T04:54:32.646Z,16.88
2018-09-12T04:55:32.620Z,16.88
2018-09-12T04:57:25.572Z,22.50
2018-09-12T04:58:25.559Z,22.50
2018-09-12T05:00:18.538Z,28.13
2018-09-12T05:01:18.506Z,33.75
2018-09-12T05:03:11.444Z,39.38
2018-09-12T05:04:11.448Z,39.38
2018-09-12T05:06:04.343Z,45.00
2018-09-12T05:07:04.319Z,50.63
2018-09-12T05:08:57.272Z,50.63
2018-09-12T05:09:57.262Z,56.25
2018-09-12T05:11:50.243Z,67.50
2018-09-12T05:12:50.226Z,73.13
2018-09-12T05:14:43.129Z,78.75
2018-09-12T05:15:43.116Z,84.38
2018-09-12T05:17:36.048Z,90.00
2018-09-12T05:18:36.044Z,95.63
2018-09-12T05:20:28.961Z,101.25
2018-09-12T05:21:28.931Z,106.88
2018-09-12T05:23:21.903Z,112.50
2018-09-12T05:24:21.829Z,112.50
2018-09-12T05:26:14.811Z,123.75
2018-09-12T05:27:14.785Z,129.38
2018-09-12T05:29:07.749Z,135.00
2018-09-12T05:30:07.738Z,140.63
2018-09-12T05:32:00.701Z,146.25
2018-09-12T05:33:00.688Z,151.88
2018-09-12T05:34:53.656Z,157.50
2018-09-12T05:35:53.652Z,163.13
2018-09-12T05:37:46.628Z,168.75
2018-09-12T05:38:46.601Z,174.38
2018-09-12T05:40:39.611Z,185.63
2018-09-12T05:41:39.555Z,185.63
2018-09-12T05:42:39.550Z,191.25
2018-09-12T05:43:39.546Z,191.25
2018-09-12T05:44:39.550Z,191.25
2018-09-12T05:45:39.558Z,208.13
2018-09-12T05:46:39.550Z,208.13
2018-09-12T05:47:39.532Z,202.50
2018-09-12T05:48:39.535Z,213.75
2018-09-12T05:49:39.530Z,219.38
2018-09-12T05:50:39.524Z,225.00
2018-09-12T05:51:39.525Z,230.63
2018-09-12T05:52:39.521Z,230.63
2018-09-12T05:53:39.529Z,236.25
2018-09-12T05:54:39.515Z,241.88
2018-09-12T05:55:39.515Z,247.50
2018-09-12T05:56:39.518Z,247.50
2018-09-12T05:57:39.507Z,253.13
2018-09-12T05:58:39.510Z,253.13
2018-09-12T05:59:39.506Z,258.75
2018-09-12T06:00:39.501Z,258.75
2018-09-12T06:01:39.510Z,258.75
2018-09-12T06:02:39.498Z,270.00
2018-09-12T06:03:39.494Z,275.63
2018-09-12T06:04:39.491Z,275.63
2018-09-12T06:05:39.488Z,281.25
2018-09-12T06:06:39.523Z,286.88
2018-09-12T06:07:39.489Z,298.13
2018-09-12T06:08:39.481Z,298.13
2018-09-12T06:09:39.477Z,298.13
2018-09-12T06:10:39.478Z,303.75
2018-09-12T06:11:39.475Z,309.38
2018-09-12T06:12:39.473Z,315.00
2018-09-12T06:13:39.480Z,320.63
2018-09-12T06:14:39.470Z,315.00
2018-09-12T06:15:39.466Z,320.63
2018-09-12T06:16:39.464Z,315.00
2018-09-12T06:17:39.463Z,309.38
2018-09-12T06:18:39.463Z,331.88
2018-09-12T06:19:39.453Z,343.13
2018-09-12T06:20:39.460Z,348.75
2018-09-12T06:21:39.454Z,354.38
2018-09-12T06:22:39.453Z,360.00
2018-09-12T06:23:39.450Z,365.63
2018-09-12T06:24:39.449Z,376.88
2018-09-12T06:25:39.450Z,376.88
2018-09-12T06:26:39.448Z,376.88
2018-09-12T06:27:39.445Z,376.88
2018-09-12T06:28:39.443Z,382.50
2018-09-12T06:29:39.439Z,388.13
2018-09-12T06:30:39.447Z,393.75
2018-09-12T06:31:39.436Z,393.75
2018-09-12T06:32:39.436Z,399.38
2018-09-12T06:33:39.433Z,405.00
2018-09-12T06:34:39.444Z,405.00
2018-09-12T06:35:39.430Z,410.63
2018-09-12T06:36:39.432Z,416.25
2018-09-12T06:37:39.453Z,416.25
2018-09-12T06:38:39.438Z,421.88
2018-09-12T06:39:39.439Z,427.50
2018-09-12T06:40:39.422Z,427.50
2018-09-12T06:41:39.426Z,433.13
2018-09-12T06:42:39.422Z,433.13
2018-09-12T06:43:39.422Z,438.75
2018-09-12T06:44:39.442Z,438.75
2018-09-12T06:45:39.418Z,438.75
2018-09-12T06:46:39.418Z,444.38
2018-09-12T06:47:39.416Z,450.00
2018-09-12T06:48:39.428Z,450.00
2018-09-12T06:49:39.419Z,455.63
2018-09-12T06:50:39.417Z,455.63
2018-09-12T06:51:39.412Z,461.25
2018-09-12T06:52:39.411Z,461.25
2018-09-12T06:53:39.416Z,472.50
2018-09-12T06:54:39.461Z,624.38
2018-09-12T06:55:39.416Z,860.63
2018-09-12T06:56:39.419Z,1057.50
2018-09-12T06:57:39.414Z,1119.38
2018-09-12T06:58:39.413Z,1164.38
2018-09-12T06:59:39.412Z,1175.63
2018-09-12T07:00:39.441Z,1215.00
2018-09-12T07:01:39.413Z,1265.63
2018-09-12T07:02:39.424Z,1288.13
2018-09-12T07:03:39.420Z,1310.63
2018-09-12T07:04:39.412Z,1327.50
2018-09-12T07:05:39.427Z,1327.50
2018-09-12T07:06:39.420Z,1361.25
2018-09-12T07:07:39.438Z,1355.63
2018-09-12T07:08:39.430Z,1338.75
2018-09-12T07:09:39.431Z,1344.38
2018-09-12T07:10:39.436Z,1389.38
2018-09-12T07:11:39.440Z,1417.50
2018-09-12T07:12:39.446Z,1440.00
2018-09-12T07:13:39.448Z,1417.50
2018-09-12T07:14:39.454Z,1434.38
2018-09-12T07:15:39.461Z,1468.13
2018-09-12T07:16:39.465Z,1479.38
2018-09-12T07:17:39.471Z,1462.50
2018-09-12T07:18:39.477Z,1496.25
2018-09-12T07:19:39.481Z,1518.75
2018-09-12T07:20:39.492Z,1541.25
2018-09-12T07:21:39.496Z,1603.13
2018-09-12T07:22:39.500Z,1631.25
2018-09-12T07:23:39.511Z,1659.38
2018-09-12T07:24:39.531Z,1681.88
2018-09-12T07:25:39.522Z,1698.75
2018-09-12T07:26:39.531Z,1732.50
2018-09-12T07:27:39.581Z,1721.25
2018-09-12T07:28:39.541Z,1771.88
2018-09-12T07:29:39.569Z,1755.00
2018-09-12T07:30:39.638Z,1710.00
2018-09-12T07:31:39.564Z,1777.50
2018-09-12T07:32:39.587Z,1816.88
2018-09-12T07:33:39.579Z,1833.75
2018-09-12T07:34:39.588Z,1884.38
2018-09-12T07:35:39.596Z,1895.63
2018-09-12T07:36:39.608Z,1968.75
2018-09-12T07:37:39.612Z,1980.00
2018-09-12T07:38:39.619Z,1946.25
2018-09-12T07:39:42.576Z,1996.88
2018-09-12T07:40:39.639Z,2098.13
2018-09-12T07:41:39.701Z,2126.25
2018-09-12T07:42:39.654Z,2109.38
2018-09-12T07:43:39.663Z,2086.88
2018-09-12T07:44:39.670Z,2081.25
2018-09-12T07:45:39.681Z,2064.38
2018-09-12T07:46:39.691Z,2115.00
2018-09-12T07:47:39.697Z,2317.50
2018-09-12T07:48:39.711Z,2418.75
2018-09-12T07:49:39.718Z,2356.88
2018-09-12T07:50:39.726Z,2328.75
2018-09-12T07:51:39.735Z,2351.25
2018-09-12T07:52:39.747Z,2311.88
2018-09-12T07:53:39.754Z,2345.63
2018-09-12T07:54:39.757Z,2345.63
2018-09-12T07:55:39.773Z,2317.50
2018-09-12T07:56:39.823Z,2407.50
2018-09-12T07:57:39.802Z,2520.00
2018-09-12T07:58:39.826Z,2525.63
2018-09-12T07:59:39.813Z,2446.88
2018-09-12T08:00:39.886Z,2413.13
2018-09-12T08:01:39.832Z,2446.88
2018-09-12T08:02:39.849Z,2480.63
2018-09-12T08:03:39.863Z,2497.50
2018-09-12T08:04:39.867Z,2610.00
2018-09-12T08:05:39.877Z,2559.38
2018-09-12T08:06:39.884Z,2536.88
2018-09-12T08:07:39.894Z,2508.75
2018-09-12T08:08:39.899Z,2632.50
2018-09-12T08:09:39.917Z,2593.13
2018-09-12T08:10:39.921Z,2655.00
2018-09-12T08:11:39.938Z,2660.63
2018-09-12T08:12:39.952Z,2593.13
2018-09-12T08:13:39.961Z,2705.63
2018-09-12T08:14:39.972Z,2761.88
2018-09-12T08:15:39.984Z,2604.38
2018-09-12T08:16:39.995Z,2643.75
2018-09-12T08:17:40.006Z,2778.75
2018-09-12T08:18:40.016Z,2694.38
2018-09-12T08:19:40.028Z,2688.75
2018-09-12T08:20:40.055Z,2739.38
2018-09-12T08:21:40.047Z,2778.75
2018-09-12T08:22:40.063Z,2823.75
2018-09-12T08:23:40.070Z,2728.13
2018-09-12T08:24:40.083Z,2604.38
2018-09-12T08:25:40.096Z,2745.00
2018-09-12T08:26:40.161Z,2896.88
2018-09-12T08:27:40.114Z,2896.88
2018-09-12T08:28:40.130Z,3003.75
2018-09-12T08:29:40.145Z,3245.63
2018-09-12T08:30:40.158Z,3178.13
2018-09-12T08:31:40.164Z,3048.75
2018-09-12T08:32:40.177Z,3195.00
2018-09-12T08:33:40.217Z,3150.00
2018-09-12T08:34:40.201Z,3150.00
2018-09-12T08:35:40.208Z,3183.75
2018-09-12T08:36:40.216Z,3330.00
2018-09-12T08:37:40.251Z,3330.00
2018-09-12T08:38:40.247Z,3245.63
2018-09-12T08:39:40.260Z,3363.75
2018-09-12T08:40:40.269Z,3459.38
2018-09-12T08:41:40.280Z,3318.75
2018-09-12T08:42:40.358Z,3262.50
2018-09-12T08:43:40.348Z,3425.63
2018-09-12T08:44:40.315Z,3526.88
2018-09-12T08:45:40.334Z,3324.38
2018-09-12T08:46:40.346Z,3285.00
2018-09-12T08:47:40.363Z,3380.63
2018-09-12T08:48:40.378Z,3279.38
2018-09-12T08:49:40.405Z,3330.00
2018-09-12T08:50:40.398Z,3301.88
2018-09-12T08:51:40.408Z,3352.50
2018-09-12T08:52:40.421Z,3566.25
2018-09-12T08:53:40.457Z,3532.50
2018-09-12T08:54:40.462Z,3639.38
2018-09-12T08:55:40.464Z,3667.50
2018-09-12T08:56:40.492Z,3611.25
2018-09-12T08:57:40.492Z,3577.50
2018-09-12T08:58:40.509Z,3588.75
2018-09-12T08:59:40.523Z,3465.00
2018-09-12T09:00:40.531Z,3622.50
2018-09-12T09:01:40.579Z,3729.38
2018-09-12T09:02:40.559Z,3583.13
2018-09-12T09:03:40.582Z,3583.13
2018-09-12T09:04:40.589Z,3622.50
2018-09-12T09:05:40.601Z,3611.25
2018-09-12T09:06:40.614Z,3661.88
2018-09-12T09:07:40.627Z,3695.63
2018-09-12T09:08:40.642Z,3757.50
2018-09-12T09:09:40.659Z,3836.25
2018-09-12T09:10:40.745Z,3926.25
2018-09-12T09:11:40.688Z,3718.13
2018-09-12T09:12:40.699Z,3931.88
2018-09-12T09:13:40.712Z,3931.88
2018-09-12T09:14:40.726Z,3965.63
2018-09-12T09:15:40.742Z,3920.63
2018-09-12T09:16:40.753Z,3898.13
2018-09-12T09:17:40.770Z,3841.88
2018-09-12T09:18:40.786Z,3678.75
2018-09-12T09:19:40.800Z,3735.00
2018-09-12T09:20:40.810Z,3712.50
2018-09-12T09:21:40.824Z,3757.50
2018-09-12T09:22:40.839Z,3847.50
2018-09-12T09:23:40.914Z,3926.25
2018-09-12T09:24:40.885Z,3915.00
2018-09-12T09:25:40.898Z,3971.25
2018-09-12T09:26:40.901Z,3881.25
2018-09-12T09:27:40.912Z,3954.38
2018-09-12T09:28:40.927Z,4230.00
2018-09-12T09:29:40.964Z,4213.13
2018-09-12T09:30:40.954Z,4134.38
2018-09-12T09:31:40.977Z,4038.75
2018-09-12T09:32:41.017Z,3926.25
2018-09-12T09:33:40.985Z,3982.50
2018-09-12T09:34:41.047Z,4010.63
2018-09-12T09:35:41.122Z,3909.38
2018-09-12T09:36:41.034Z,4168.13
2018-09-12T09:37:41.040Z,4297.50
2018-09-12T09:38:41.089Z,4010.63
2018-09-12T09:39:41.095Z,3796.88
2018-09-12T09:40:41.090Z,3931.88
2018-09-12T09:41:41.118Z,3740.63
2018-09-12T09:42:41.166Z,3549.38
2018-09-12T09:43:41.139Z,3903.75
2018-09-12T09:44:41.173Z,3982.50
2018-09-12T09:45:41.157Z,3954.38
2018-09-12T09:46:41.177Z,3903.75
2018-09-12T09:47:41.188Z,3836.25
2018-09-12T09:48:41.199Z,3898.13
2018-09-12T09:49:41.242Z,4050.00
2018-09-12T09:50:41.228Z,4089.38
2018-09-12T09:51:41.240Z,4095.00
2018-09-12T09:52:41.257Z,4218.75
2018-09-12T09:53:41.273Z,4050.00
2018-09-12T09:54:41.341Z,4095.00
2018-09-12T09:55:41.298Z,4021.88
2018-09-12T09:56:41.329Z,4151.25
2018-09-12T09:57:41.340Z,3965.63
2018-09-12T09:58:41.347Z,4061.25
2018-09-12T09:59:41.360Z,4179.38
2018-09-12T10:00:41.373Z,4145.63
2018-09-12T10:01:41.388Z,4230.00
2018-09-12T10:02:41.400Z,4387.50
2018-09-12T10:03:41.411Z,4511.25
2018-09-12T10:04:41.432Z,4331.25
2018-09-12T10:05:41.446Z,4179.38
2018-09-12T10:06:41.460Z,4168.13
2018-09-12T10:07:41.475Z,4201.88
2018-09-12T10:08:41.488Z,4224.38
2018-09-12T10:09:41.506Z,4303.13
2018-09-12T10:10:41.519Z,4393.13
2018-09-12T10:11:41.564Z,4224.38
2018-09-12T10:12:41.548Z,4033.13
2018-09-12T10:13:41.573Z,4196.25
2018-09-12T10:14:41.578Z,4314.38
2018-09-12T10:15:41.593Z,4230.00
2018-09-12T10:16:41.606Z,4348.13
2018-09-12T10:17:41.628Z,4201.88
2018-09-12T10:18:41.635Z,4179.38
2018-09-12T10:19:41.649Z,3937.50
2018-09-12T10:20:41.664Z,4033.13
2018-09-12T10:21:41.683Z,4156.88
2018-09-12T10:22:41.698Z,4061.25
2018-09-12T10:23:41.712Z,4061.25
2018-09-12T10:24:41.724Z,3875.63
2018-09-12T10:25:41.737Z,3937.50
2018-09-12T10:26:41.753Z,4432.50
2018-09-12T10:27:41.766Z,4252.50
2018-09-12T10:28:41.783Z,3971.25
2018-09-12T10:29:41.801Z,4111.88
2018-09-12T10:30:41.812Z,4033.13
2018-09-12T10:31:41.833Z,3903.75
2018-09-12T10:32:41.842Z,3931.88
2018-09-12T10:33:41.862Z,4050.00
2018-09-12T10:34:41.872Z,3774.38
2018-09-12T10:35:41.886Z,3645.00
2018-09-12T10:36:41.900Z,4095.00
2018-09-12T10:37:41.919Z,4128.75
2018-09-12T10:38:41.931Z,4156.88
2018-09-12T10:39:41.970Z,4263.75
2018-09-12T10:40:41.964Z,4314.38
2018-09-12T10:41:41.980Z,4100.63
2018-09-12T10:42:41.996Z,4168.13
2018-09-12T10:43:42.010Z,4213.13
2018-09-12T10:44:42.023Z,4179.38
2018-09-12T10:45:42.046Z,4078.13
2018-09-12T10:46:42.054Z,4151.25
2018-09-12T10:47:42.071Z,3785.63
2018-09-12T10:48:42.097Z,3870.00
2018-09-12T10:49:42.098Z,3875.63
2018-09-12T10:50:42.114Z,3898.13
2018-09-12T10:51:42.131Z,3988.13
2018-09-12T10:52:42.147Z,4033.13
2018-09-12T10:53:42.162Z,4089.38
2018-09-12T10:54:42.179Z,3920.63
2018-09-12T10:55:42.191Z,4230.00
2018-09-12T10:56:42.206Z,4072.50
2018-09-12T10:57:42.225Z,4213.13
2018-09-12T10:58:42.235Z,4365.00
2018-09-12T10:59:42.257Z,4218.75
2018-09-12T11:00:42.268Z,4173.75
2018-09-12T11:01:42.281Z,4156.88
2018-09-12T11:02:42.302Z,4117.50
2018-09-12T11:03:42.358Z,3712.50
2018-09-12T11:04:42.331Z,3757.50
2018-09-12T11:05:42.346Z,3931.88
2018-09-12T11:06:42.360Z,3988.13
2018-09-12T11:07:42.374Z,3915.00
2018-09-12T11:08:42.389Z,4162.50
2018-09-12T11:09:42.443Z,4190.63
2018-09-12T11:10:42.422Z,4061.25
2018-09-12T11:11:42.439Z,3937.50
2018-09-12T11:12:42.455Z,4207.50
2018-09-12T11:13:42.490Z,4348.13
2018-09-12T11:14:42.483Z,4314.38
2018-09-12T11:15:42.499Z,4106.25
2018-09-12T11:16:42.513Z,4168.13
2018-09-12T11:17:42.534Z,4185.00
2018-09-12T11:18:42.549Z,4353.75
2018-09-12T11:19:42.559Z,4275.00
2018-09-12T11:20:42.575Z,4207.50
2018-09-12T11:21:42.584Z,4196.25
2018-09-12T11:22:42.609Z,4269.38
2018-09-12T11:23:42.627Z,4280.63
2018-09-12T11:24:42.640Z,4297.50
2018-09-12T11:25:42.656Z,4235.63
2018-09-12T11:26:42.671Z,4291.88
2018-09-12T11:27:42.683Z,4348.13
2018-09-12T11:28:42.706Z,3976.88
2018-09-12T11:29:42.717Z,3830.63
2018-09-12T11:30:42.732Z,3903.75
2018-09-12T11:31:42.755Z,3903.75
2018-09-12T11:32:42.757Z,3757.50
2018-09-12T11:33:42.779Z,3645.00
2018-09-12T11:34:42.797Z,3690.00
2018-09-12T11:35:42.812Z,3661.88
2018-09-12T11:36:42.829Z,3594.38
2018-09-12T11:37:42.844Z,3515.63
2018-09-12T11:38:42.861Z,3656.25
2018-09-12T11:39:42.874Z,3600.00
2018-09-12T11:40:42.888Z,3667.50
2018-09-12T11:41:42.914Z,3723.75
2018-09-12T11:42:42.926Z,3549.38
2018-09-12T11:43:42.939Z,3825.00
2018-09-12T11:44:42.957Z,4072.50
2018-09-12T11:45:42.981Z,4106.25
2018-09-12T11:46:42.979Z,4044.38
2018-09-12T11:47:43.003Z,3971.25
2018-09-12T11:48:43.021Z,3937.50
2018-09-12T11:49:43.034Z,4179.38
2018-09-12T11:50:43.055Z,4061.25
2018-09-12T11:51:43.069Z,4010.63
2018-09-12T11:52:43.083Z,4089.38
2018-09-12T11:53:43.102Z,4061.25
2018-09-12T11:54:43.110Z,4010.63
2018-09-12T11:55:43.134Z,4027.50
2018-09-12T11:56:43.146Z,3903.75
2018-09-12T11:57:43.164Z,3903.75
2018-09-12T11:58:43.181Z,3853.13
2018-09-12T11:59:43.196Z,3819.38
2018-09-12T12:00:43.211Z,3802.50
2018-09-12T12:01:43.228Z,3690.00
2018-09-12T12:02:43.241Z,3504.38
2018-09-12T12:03:43.259Z,3532.50
2018-09-12T12:04:43.273Z,3504.38
2018-09-12T12:05:43.302Z,3566.25
2018-09-12T12:06:43.306Z,3605.63
2018-09-12T12:07:43.321Z,3448.13
2018-09-12T12:08:43.334Z,3571.88
2018-09-12T12:09:43.350Z,3459.38
2018-09-12T12:10:43.369Z,3425.63
2018-09-12T12:11:43.377Z,3577.50
2018-09-12T12:12:43.395Z,3656.25
2018-09-12T12:13:43.409Z,3600.00
2018-09-12T12:14:43.422Z,3673.13
2018-09-12T12:15:43.435Z,3645.00
2018-09-12T12:16:43.499Z,2379.38
2018-09-12T12:17:43.471Z,635.63
2018-09-12T12:18:43.477Z,399.38
2018-09-12T12:19:43.502Z,376.88
2018-09-12T12:20:43.504Z,365.63
2018-09-12T12:21:43.519Z,365.63
2018-09-12T12:22:43.534Z,365.63
2018-09-12T12:23:43.539Z,360.00
2018-09-12T12:24:43.551Z,365.63
2018-09-12T12:25:43.576Z,354.38
2018-09-12T12:26:43.570Z,354.38
2018-09-12T12:27:43.581Z,354.38
2018-09-12T12:28:43.591Z,354.38
2018-09-12T12:29:43.606Z,354.38
2018-09-12T12:30:43.603Z,354.38
2018-09-12T12:31:43.611Z,348.75
2018-09-12T12:32:43.622Z,348.75
2018-09-12T12:33:43.631Z,348.75
2018-09-12T12:34:43.636Z,348.75
2018-09-12T12:35:43.643Z,348.75
2018-09-12T12:36:43.648Z,348.75
2018-09-12T12:37:43.660Z,348.75
2018-09-12T12:38:43.667Z,348.75
2018-09-12T12:39:43.694Z,348.75
2018-09-12T12:40:43.676Z,343.13
2018-09-12T12:41:43.683Z,343.13
2018-09-12T12:42:43.688Z,343.13
2018-09-12T12:43:43.697Z,343.13
2018-09-12T12:44:43.702Z,343.13
2018-09-12T12:45:43.705Z,337.50
2018-09-12T12:46:43.714Z,337.50
2018-09-12T12:47:43.732Z,337.50
2018-09-12T12:48:43.724Z,337.50
2018-09-12T12:49:43.732Z,337.50
2018-09-12T12:50:43.736Z,337.50
2018-09-12T12:51:43.735Z,337.50
2018-09-12T12:52:43.745Z,331.88
2018-09-12T12:53:43.742Z,331.88
2018-09-12T12:54:43.756Z,331.88
2018-09-12T12:55:43.760Z,331.88
2018-09-12T12:56:43.763Z,331.88
2018-09-12T12:57:43.769Z,331.88
2018-09-12T12:58:43.771Z,331.88
2018-09-12T12:59:43.775Z,331.88
2018-09-12T13:00:43.782Z,331.88
2018-09-12T13:01:43.788Z,331.88
2018-09-12T13:02:43.793Z,331.88
2018-09-12T13:03:43.795Z,331.88
2018-09-12T13:04:43.804Z,331.88
2018-09-12T13:05:43.923Z,326.25
2018-09-12T13:06:43.808Z,326.25
2018-09-12T13:07:43.813Z,326.25
2018-09-12T13:08:43.818Z,326.25
2018-09-12T13:09:43.825Z,326.25
2018-09-12T13:10:43.828Z,326.25
2018-09-12T13:11:43.830Z,326.25
2018-09-12T13:12:43.835Z,326.25
2018-09-12T13:13:43.837Z,326.25
2018-09-12T13:14:44.026Z,326.25
2018-09-12T13:15:43.846Z,326.25
2018-09-12T13:16:43.850Z,326.25
2018-09-12T13:17:43.871Z,326.25
2018-09-12T13:18:43.858Z,326.25
2018-09-12T13:19:43.864Z,331.88
2018-09-12T13:20:43.865Z,326.25
2018-09-12T13:21:44.055Z,326.25
2018-09-12T13:22:43.874Z,326.25
2018-09-12T13:23:43.879Z,326.25
2018-09-12T13:24:43.898Z,326.25
2018-09-12T13:25:43.887Z,326.25
2018-09-12T13:26:43.893Z,326.25
2018-09-12T13:27:43.930Z,326.25
2018-09-12T13:28:43.897Z,326.25
2018-09-12T13:29:43.903Z,326.25
2018-09-12T13:30:43.904Z,320.63
2018-09-12T13:31:43.910Z,320.63
2018-09-12T13:32:43.916Z,320.63
2018-09-12T13:33:43.920Z,320.63
2018-09-12T13:34:43.923Z,320.63
2018-09-12T13:35:43.926Z,320.63
2018-09-12T13:36:43.931Z,320.63
2018-09-12T13:37:43.934Z,320.63
2018-09-12T13:38:43.939Z,320.63
2018-09-12T13:39:43.949Z,320.63
2018-09-12T13:40:43.943Z,320.63
2018-09-12T13:41:43.950Z,320.63
2018-09-12T13:42:43.952Z,315.00
2018-09-12T13:43:43.958Z,315.00
2018-09-12T13:44:43.957Z,320.63
2018-09-12T13:45:43.965Z,309.38
2018-09-12T13:46:43.957Z,298.13
2018-09-12T13:47:43.966Z,298.13
2018-09-12T13:48:43.976Z,286.88
2018-09-12T13:49:43.978Z,281.25
2018-09-12T13:50:43.981Z,281.25
2018-09-12T13:51:43.985Z,281.25
2018-09-12T13:52:43.988Z,281.25
2018-09-12T13:53:43.996Z,292.50
2018-09-12T13:54:43.994Z,298.13
2018-09-12T13:55:43.999Z,320.63
2018-09-12T13:56:44.105Z,337.50
2018-09-12T13:57:44.007Z,354.38
2018-09-12T13:58:44.011Z,376.88
2018-09-12T13:59:44.021Z,388.13
2018-09-12T14:00:44.016Z,399.38
2018-09-12T14:01:44.020Z,410.63
2018-09-12T14:02:44.025Z,416.25
2018-09-12T14:03:44.032Z,416.25
2018-09-12T14:04:44.034Z,421.88
2018-09-12T14:05:44.035Z,416.25
2018-09-12T14:06:44.043Z,410.63
2018-09-12T14:07:44.042Z,405.00
2018-09-12T14:08:44.053Z,393.75
2018-09-12T14:09:44.046Z,388.13
2018-09-12T14:10:44.050Z,376.88
2018-09-12T14:11:44.062Z,365.63
2018-09-12T14:12:44.061Z,360.00
2018-09-12T14:13:44.068Z,348.75
2018-09-12T14:14:44.069Z,343.13
2018-09-12T14:15:44.070Z,337.50
2018-09-12T14:16:44.075Z,337.50
2018-09-12T14:17:44.083Z,331.88
2018-09-12T14:18:44.088Z,326.25
2018-09-12T14:19:44.084Z,326.25
2018-09-12T14:20:44.090Z,320.63
2018-09-12T14:21:44.093Z,320.63
2018-09-12T14:22:44.155Z,315.00
2018-09-12T14:23:44.101Z,315.00
2018-09-12T14:24:44.102Z,309.38
2018-09-12T14:25:44.105Z,309.38
2018-09-12T14:26:44.110Z,309.38
2018-09-12T14:27:44.115Z,303.75
2018-09-12T14:28:44.131Z,303.75
2018-09-12T14:29:44.119Z,303.75
2018-09-12T14:30:44.125Z,303.75
2018-09-12T14:31:44.128Z,298.13
2018-09-12T14:32:44.136Z,298.13
2018-09-12T14:33:44.138Z,298.13
2018-09-12T14:34:44.141Z,298.13
2018-09-12T14:35:44.142Z,298.13
2018-09-12T14:36:44.141Z,292.50
2018-09-12T14:37:44.148Z,292.50
2018-09-12T14:38:44.199Z,292.50
2018-09-12T14:39:44.161Z,298.13
2018-09-12T14:40:44.158Z,298.13
2018-09-12T14:41:44.161Z,298.13
2018-09-12T14:42:44.170Z,292.50
2018-09-12T14:43:44.174Z,292.50
2018-09-12T14:44:44.189Z,292.50
2018-09-12T14:45:44.175Z,292.50
2018-09-12T14:46:44.182Z,292.50
2018-09-12T14:47:44.188Z,292.50
2018-09-12T14:48:44.196Z,292.50
2018-09-12T14:49:44.192Z,292.50
2018-09-12T14:50:44.260Z,292.50
2018-09-12T14:51:44.200Z,292.50
2018-09-12T14:52:44.200Z,292.50
2018-09-12T14:53:44.195Z,292.50
2018-09-12T14:54:44.201Z,292.50
2018-09-12T14:55:44.209Z,286.88
2018-09-12T14:56:44.215Z,286.88
2018-09-12T14:57:44.235Z,286.88
2018-09-12T14:58:44.225Z,286.88
2018-09-12T14:59:44.225Z,286.88
2018-09-12T15:00:44.226Z,286.88
2018-09-12T15:01:44.231Z,286.88
2018-09-12T15:02:44.232Z,286.88
2018-09-12T15:03:44.229Z,281.25
2018-09-12T15:04:44.259Z,281.25
2018-09-12T15:05:44.243Z,281.25
2018-09-12T15:06:44.249Z,281.25
2018-09-12T15:07:44.254Z,281.25
2018-09-12T15:08:44.258Z,275.63
2018-09-12T15:09:44.257Z,275.63
2018-09-12T15:10:44.259Z,275.63
2018-09-12T15:11:44.262Z,275.63
2018-09-12T15:12:44.276Z,275.63
2018-09-12T15:13:44.267Z,270.00
2018-09-12T15:14:44.275Z,270.00
2018-09-12T15:15:44.280Z,270.00
2018-09-12T15:16:44.277Z,270.00
2018-09-12T15:17:44.284Z,270.00
2018-09-12T15:18:44.284Z,264.38
2018-09-12T15:19:44.288Z,264.38
2018-09-12T15:20:44.293Z,264.38
2018-09-12T15:21:44.296Z,264.38
2018-09-12T15:22:44.298Z,264.38
2018-09-12T15:23:44.301Z,264.38
2018-09-12T15:24:44.296Z,264.38
2018-09-12T15:25:44.299Z,258.75
2018-09-12T15:26:44.307Z,258.75
2018-09-12T15:27:44.325Z,258.75
2018-09-12T15:28:44.315Z,258.75
2018-09-12T15:29:44.315Z,258.75
2018-09-12T15:30:44.321Z,253.13
2018-09-12T15:31:44.325Z,253.13
2018-09-12T15:32:44.327Z,253.13
2018-09-12T15:33:44.342Z,253.13
2018-09-12T15:34:44.336Z,253.13
2018-09-12T15:35:44.359Z,253.13
2018-09-12T15:36:44.344Z,247.50
2018-09-12T15:37:44.341Z,253.13
2018-09-12T15:38:44.346Z,247.50